Ana Sayfa
METAR-TAF:

METAR-TAF

Havaalanları :

Muskogee, Oklahoma, Amerika Birleşik Devletleri

Enlem: 35-39-25N, Boylam: 095-21-35W, yükseklik: 185 m

Güncel hava durumu gözlemi

Rapor saat 08:53 UTC de 32 dakika önce yapıldı.
Rüzgar kuzey/kuzeybatıdan 13 kt
Sıcaklık 3°C
Nem 100%
Basınç 1015 hPa
Görüş mesafesi: 12.9 km
400 ft yükseklikte çok bulutlu

METAR: KMKO 290853Z AUTO 34013KT 8SM OVC004 03/03 A2998 RMK AO2 RAE49 SLP154 P0000 60004 T00330028 53012

Saat: 03:25 (09:25 UTC)


TAF: eksik

4.000'den fazla havaalanı için hava durumu gözlemleri ve tahminleri (METAR ve TAF raporları).

Kullanılabilir istasyonlar harita üzerinde sarı ve kırmızı noktalarla gösterilir.

İstasyonun adını görmek için fareyi noktanın üzerinde gezdirin.

Sonrasında hava gözlem ve tahminlerini görmek için tıklayın.

Haritayı değiştirmek için: yaklaştırmak için siyah artı işaretli yeşil düğmeye ve uzaklaştırmak için de eksi işaretli düğmeye hızla tıklayın; bitişik haritalar için yeşil okları kullanın.


METAR-TAF: